Somers Point, NJ (08244)

7:10 AM EST on December 06, 2016 (GMT -0500)
2nd Street Somers Point | | Change Station

Elev 33 ft 39.32 °N, 74.60 °W | Updated 9 minutes ago

Clear
Clear
36.9 °F
Feels Like 37 °F
N
0.0
Wind Variable Wind from NNW
Gusts 3.0 mph

Today
High -- | Low -- °F
--% Chance of Precip.
Yesterday
High -- | Low -- °F
Precip. -- in
Pressure 30.14 in
Visibility 10.0 miles
Clouds Clear
Windchill 37 °F
Dew Point 32 °F
Humidity 82%
Rainfall 0.00 in
Snow Depth Not available.
7:04 AM 4:34 PM
Waxing Crescent, 41% visible
METAR KACY 061154Z 00000KT 10SM CLR 02/M01 A3013 RMK AO2 SLP204 T00221011 10028 20017 53002
Pressure 30.14 in
Visibility 10.0 miles
Clouds Clear
Windchill 37 °F
Dew Point 32 °F
Humidity 82%
Rainfall 0.00 in
Snow Depth Not available.
7:04 AM 4:34 PM
Waxing Crescent, 41% visible
METAR KACY 061154Z 00000KT 10SM CLR 02/M01 A3013 RMK AO2 SLP204 T00221011 10028 20017 53002

10-Day Weather Forecast

Almanac

Astronomy

Dec. 06, 2016 Rise Set
Actual Time
Civil Twilight
Nautical Twilight
Astronomical Twilight
Moon
Length of Visible Light
Length of Day
Tomorrow will be .
, % of the Moon is Illuminated

Today's Extremes

State Highs State Lows

Community

WunderPhotos

Upload Photos

1,955,936 photos uploaded!

WunderBlog® & News

Nearby

Air Quality

  Air Quality AQ Index Pollutant
Not available.

Snow Depth

Station Depth Elevation

Earthquake Activity

City Distance Mag. Time & Date
Minimum magnitude displayed is 2.5.

Coastal Water Temperatures

Place Temperature

Stations

Nearby Weather Stations

Station Location Temp. Windchill Dew Point Humidity Wind Precip. Elev Updated Type
                   

Watches & Warnings

There are currently no watches in effect.